createdAt,value
2023-04-10T00:01:52.957Z,10.48
2023-04-10T00:06:56.067Z,9.25
2023-04-10T00:11:58.255Z,10.65
2023-04-10T00:17:00.529Z,10.25
2023-04-10T00:22:02.969Z,8.90
2023-04-10T00:27:05.327Z,7.65
2023-04-10T00:32:07.645Z,8.90
2023-04-10T00:37:10.592Z,10.20
2023-04-10T00:42:12.875Z,9.27
2023-04-10T00:47:15.972Z,12.25
2023-04-10T00:52:18.823Z,7.93
2023-04-10T00:57:21.029Z,8.38
2023-04-10T01:02:23.337Z,8.88
2023-04-10T01:07:31.711Z,9.77
2023-04-10T01:13:08.061Z,10.50
2023-04-10T01:18:32.027Z,9.40
2023-04-10T01:24:04.501Z,8.25
2023-04-10T01:29:14.635Z,10.32
2023-04-10T01:34:22.398Z,8.68
2023-04-10T01:39:26.727Z,8.50
2023-04-10T01:44:31.358Z,9.10
2023-04-10T01:49:35.013Z,9.07
2023-04-10T01:54:37.319Z,10.85
2023-04-10T01:59:40.156Z,8.88
2023-04-10T02:04:42.387Z,10.32
2023-04-10T02:10:07.767Z,9.35
2023-04-10T02:15:12.301Z,8.98
2023-04-10T02:20:16.566Z,9.57
2023-04-10T02:25:18.783Z,8.52
2023-04-10T02:30:21.197Z,8.63
2023-04-10T02:35:23.412Z,9.60
2023-04-10T02:40:25.651Z,9.23
2023-04-10T02:45:27.710Z,9.88
2023-04-10T02:50:32.171Z,9.23
2023-04-10T02:55:34.298Z,12.85
2023-04-10T03:00:36.390Z,10.15
2023-04-10T03:05:38.501Z,11.40
2023-04-10T03:10:43.168Z,10.38
2023-04-10T03:15:45.431Z,10.10
2023-04-10T03:20:47.776Z,10.70
2023-04-10T03:25:56.487Z,10.05
2023-04-10T03:30:58.764Z,10.63
2023-04-10T03:36:01.216Z,9.25
2023-04-10T03:41:03.758Z,12.68
2023-04-10T03:46:06.703Z,12.40
2023-04-10T03:51:08.856Z,12.40
2023-04-10T03:56:11.150Z,10.48
2023-04-10T04:01:13.387Z,12.55
2023-04-10T04:06:15.632Z,11.23
2023-04-10T04:11:17.745Z,13.00
2023-04-10T04:16:19.999Z,15.68
2023-04-10T04:21:22.241Z,11.20
2023-04-10T04:26:25.408Z,13.38
2023-04-10T04:31:32.886Z,11.32
2023-04-10T04:36:35.232Z,11.27
2023-04-10T04:41:37.356Z,12.30
2023-04-10T04:46:39.528Z,11.13
2023-04-10T04:51:41.714Z,11.38
2023-04-10T04:56:44.198Z,11.75
2023-04-10T05:01:46.758Z,13.63
2023-04-10T05:06:49.061Z,10.30
2023-04-10T05:11:51.801Z,11.00
2023-04-10T05:16:53.911Z,10.63
2023-04-10T05:21:56.052Z,13.02
2023-04-10T05:26:58.271Z,13.13
2023-04-10T05:32:00.656Z,12.30
2023-04-10T05:37:02.813Z,12.65
2023-04-10T05:42:05.006Z,11.27
2023-04-10T05:47:07.077Z,11.82
2023-04-10T05:52:09.321Z,11.85
2023-04-10T05:57:11.440Z,12.35
2023-04-10T06:02:13.798Z,18.60
2023-04-10T06:07:16.226Z,15.23
2023-04-10T06:12:18.623Z,12.40
2023-04-10T06:17:21.836Z,14.93
2023-04-10T06:22:24.056Z,15.50
2023-04-10T06:27:27.666Z,15.30
2023-04-10T06:32:29.889Z,13.85
2023-04-10T06:37:33.071Z,9.52
2023-04-10T06:42:35.988Z,12.50
2023-04-10T06:47:38.412Z,12.00
2023-04-10T06:52:40.596Z,10.68
2023-04-10T06:57:42.808Z,11.40
2023-04-10T07:02:45.191Z,8.10
2023-04-10T07:07:47.940Z,9.15
2023-04-10T07:12:50.005Z,8.15
2023-04-10T07:17:52.159Z,9.73
2023-04-10T07:22:54.396Z,8.27
2023-04-10T07:27:56.557Z,8.95
2023-04-10T07:32:59.043Z,6.05
2023-04-10T07:38:02.132Z,6.85
2023-04-10T07:43:04.521Z,9.57
2023-04-10T07:48:07.322Z,10.60
2023-04-10T07:53:09.473Z,9.45
2023-04-10T07:58:11.821Z,5.82
2023-04-10T08:03:16.273Z,6.30
2023-04-10T08:08:18.598Z,7.07
2023-04-10T08:13:20.723Z,4.10
2023-04-10T08:18:23.065Z,3.80
2023-04-10T08:23:25.477Z,4.78
2023-04-10T08:28:27.737Z,4.43
2023-04-10T08:33:29.957Z,5.32
2023-04-10T08:38:32.142Z,5.65
2023-04-10T08:43:35.766Z,5.32
2023-04-10T08:48:54.058Z,5.13
2023-04-10T08:54:06.350Z,4.80
2023-04-10T08:59:09.099Z,6.93
2023-04-10T09:04:14.237Z,6.95
2023-04-10T09:09:16.820Z,4.82
2023-04-10T09:14:26.233Z,5.93
2023-04-10T09:19:32.868Z,6.03
2023-04-10T09:24:44.468Z,4.88
2023-04-10T09:29:52.071Z,5.15
2023-04-10T09:35:00.836Z,5.28
2023-04-10T09:40:04.166Z,3.95
2023-04-10T09:45:07.127Z,4.22
2023-04-10T09:50:09.374Z,4.43
2023-04-10T09:55:17.960Z,4.45
2023-04-10T10:00:21.085Z,16.90
2023-04-10T10:05:28.474Z,8.40
2023-04-10T10:10:31.567Z,5.40
2023-04-10T10:15:45.173Z,5.10
2023-04-10T10:20:48.173Z,3.78
2023-04-10T10:25:52.262Z,5.10
2023-04-10T10:30:56.014Z,4.13
2023-04-10T10:36:02.069Z,4.22
2023-04-10T10:41:24.140Z,6.57
2023-04-10T10:46:46.648Z,5.82
2023-04-10T10:51:52.618Z,4.45
2023-04-10T10:56:54.792Z,8.18
2023-04-10T11:02:14.011Z,9.88
2023-04-10T11:07:17.032Z,4.93
2023-04-10T11:12:26.660Z,4.93
2023-04-10T11:17:49.205Z,4.07
2023-04-10T11:23:10.966Z,6.60
2023-04-10T11:28:36.102Z,7.82
2023-04-10T11:33:38.772Z,4.85
2023-04-10T11:38:40.843Z,5.10
2023-04-10T11:43:42.981Z,6.95
2023-04-10T11:48:45.293Z,5.70
2023-04-10T11:53:47.645Z,4.78
2023-04-10T11:58:53.240Z,4.90
2023-04-10T12:03:55.934Z,5.13
2023-04-10T12:08:58.532Z,6.95
2023-04-10T12:14:00.787Z,9.57
2023-04-10T12:19:03.281Z,4.35
2023-04-10T12:24:06.302Z,6.63
2023-04-10T12:29:10.320Z,12.55
2023-04-10T12:34:18.896Z,4.78
2023-04-10T12:39:25.474Z,4.25
2023-04-10T12:44:28.259Z,3.90
2023-04-10T12:49:30.683Z,4.82
2023-04-10T12:54:35.211Z,3.47
2023-04-10T12:59:37.785Z,4.15
2023-04-10T13:04:40.601Z,3.38
2023-04-10T13:09:43.225Z,3.47
2023-04-10T13:14:46.548Z,4.13
2023-04-10T13:19:49.066Z,4.43
2023-04-10T13:24:51.197Z,3.75
2023-04-10T13:29:53.490Z,3.72
2023-04-10T13:34:57.648Z,4.40
2023-04-10T13:39:59.966Z,4.70
2023-04-10T13:45:02.368Z,4.93
2023-04-10T13:50:04.676Z,6.63
2023-04-10T13:55:07.799Z,10.05
2023-04-10T14:00:10.657Z,7.15
2023-04-10T14:05:12.886Z,8.40
2023-04-10T14:10:15.130Z,6.50
2023-04-10T14:15:17.444Z,10.75
2023-04-10T14:20:19.781Z,6.72
2023-04-10T14:25:22.021Z,6.60
2023-04-10T14:30:26.284Z,4.00
2023-04-10T14:35:28.360Z,4.45
2023-04-10T14:40:30.590Z,7.18
2023-04-10T14:45:33.397Z,7.90
2023-04-10T14:50:35.655Z,8.73
2023-04-10T14:55:37.813Z,12.88
2023-04-10T15:00:40.807Z,8.30
2023-04-10T15:05:43.243Z,10.55
2023-04-10T15:10:45.634Z,8.52
2023-04-10T15:15:48.988Z,10.05
2023-04-10T15:20:51.269Z,9.25
2023-04-10T15:25:53.990Z,10.55
2023-04-10T15:30:56.484Z,8.35
2023-04-10T15:35:58.780Z,12.55
2023-04-10T15:41:01.075Z,8.48
2023-04-10T15:46:03.769Z,6.55
2023-04-10T15:51:06.887Z,5.60
2023-04-10T15:56:09.270Z,7.63
2023-04-10T16:01:11.472Z,7.95
2023-04-10T16:06:13.698Z,18.95
2023-04-10T16:11:16.025Z,5.63
2023-04-10T16:16:18.862Z,7.82
2023-04-10T16:21:22.115Z,7.07
2023-04-10T16:26:24.388Z,6.72
2023-04-10T16:31:26.732Z,6.53
2023-04-10T16:36:29.088Z,7.28
2023-04-10T16:41:31.409Z,8.00
2023-04-10T16:46:33.577Z,7.78
2023-04-10T16:51:35.767Z,6.75
2023-04-10T16:56:37.963Z,12.20
2023-04-10T17:01:40.188Z,8.90
2023-04-10T17:06:42.562Z,10.60
2023-04-10T17:11:44.837Z,7.85
2023-04-10T17:16:47.149Z,11.65
2023-04-10T17:21:49.492Z,18.08
2023-04-10T17:26:51.766Z,9.00
2023-04-10T17:31:53.991Z,8.32
2023-04-10T17:36:56.237Z,12.60
2023-04-10T17:41:58.340Z,17.27
2023-04-10T17:47:02.282Z,15.35
2023-04-10T17:52:04.581Z,11.05
2023-04-10T17:57:07.089Z,16.05
2023-04-10T18:02:09.188Z,20.20
2023-04-10T18:07:11.766Z,17.38
2023-04-10T18:12:13.939Z,13.40
2023-04-10T18:17:16.159Z,9.32
2023-04-10T18:22:19.544Z,11.05
2023-04-10T18:27:21.877Z,12.98
2023-04-10T18:32:24.111Z,11.27
2023-04-10T18:37:26.399Z,9.95
2023-04-10T18:42:28.538Z,12.27
2023-04-10T18:47:30.674Z,12.55
2023-04-10T18:52:32.801Z,16.48
2023-04-10T18:57:34.982Z,18.25
2023-04-10T19:02:37.457Z,16.00
2023-04-10T19:07:43.245Z,19.20
2023-04-10T19:12:48.452Z,15.90
2023-04-10T19:17:54.402Z,11.10
2023-04-10T19:22:56.617Z,14.25
2023-04-10T19:27:58.937Z,17.05
2023-04-10T19:33:01.149Z,20.58
2023-04-10T19:38:03.364Z,13.77
2023-04-10T19:43:05.619Z,8.70
2023-04-10T19:48:09.697Z,7.35
2023-04-10T19:53:13.292Z,9.05
2023-04-10T19:58:35.713Z,8.27
2023-04-10T20:03:38.839Z,11.65
2023-04-10T20:08:41.070Z,7.75
2023-04-10T20:13:43.345Z,9.60
2023-04-10T20:18:45.644Z,8.88
2023-04-10T20:23:48.089Z,10.52
2023-04-10T20:28:50.193Z,8.70
2023-04-10T20:33:54.254Z,11.27
2023-04-10T20:38:57.382Z,10.70
2023-04-10T20:44:00.049Z,12.13
2023-04-10T20:49:02.319Z,10.85
2023-04-10T20:54:06.298Z,16.33
2023-04-10T20:59:08.627Z,10.15
2023-04-10T21:04:10.936Z,9.15
2023-04-10T21:09:13.161Z,8.02
2023-04-10T21:14:15.326Z,9.75
2023-04-10T21:19:17.950Z,9.18
2023-04-10T21:24:20.134Z,8.57
2023-04-10T21:29:22.386Z,7.25
2023-04-10T21:34:24.524Z,5.90
2023-04-10T21:39:26.796Z,8.13
2023-04-10T21:44:29.007Z,6.85
2023-04-10T21:49:31.790Z,7.78
2023-04-10T21:54:33.940Z,9.60
2023-04-10T21:59:37.070Z,8.65
2023-04-10T22:04:51.505Z,9.60
2023-04-10T22:09:56.387Z,11.40
2023-04-10T22:14:58.783Z,10.52
2023-04-10T22:20:01.267Z,9.35
2023-04-10T22:25:03.490Z,10.68
2023-04-10T22:30:06.349Z,11.32
2023-04-10T22:35:08.945Z,10.13
2023-04-10T22:40:13.121Z,9.23
2023-04-10T22:45:16.207Z,9.88
2023-04-10T22:50:18.447Z,7.88
2023-04-10T22:55:20.648Z,8.55
2023-04-10T23:00:22.863Z,7.90
2023-04-10T23:05:25.049Z,9.77
2023-04-10T23:10:27.104Z,7.35
2023-04-10T23:15:29.310Z,7.50
2023-04-10T23:20:31.635Z,10.10
2023-04-10T23:25:33.866Z,7.88
2023-04-10T23:30:40.221Z,8.45
2023-04-10T23:35:42.386Z,9.32
2023-04-10T23:40:44.782Z,8.15
2023-04-10T23:45:46.940Z,6.35
2023-04-10T23:50:49.250Z,8.55
2023-04-10T23:55:51.330Z,8.57
